CPA927 ZGHA-VHHH
Flight info
| Callsign | CPA927 |
|---|---|
| Flight time | N/A |
| Altitude | 34000 |
| Route | UBM9X/36L UBMOG W615 IDAXI R473 WYN W18 NLG W23 ZUH R473 SIERA SIER7C/07C |
| Aircraft | A359/H-SDE2E3GHIJ1J3J4J5LM1ORWXYZ/LB1D1 |
Departure
| Time | 2026-05-04 18:31 |
|---|---|
| Airport | Changsha Huanghua International Airport (ZGHA) |
Arrival
| Time | N/A |
|---|---|
| Airport | Hong Kong International Airport (VHHH) |
| Time | Latitude | Longitude | Altitude | Speed | Heading |
|---|---|---|---|---|---|
| 2026-05-04 18:06 | 28.19615 | 113.21549 | 224 ft | 0 kts | 260° |
| 2026-05-04 18:20 | 28.19615 | 113.21551 | 225 ft | 1 kts | 260° |
| 2026-05-04 18:20 | 28.19618 | 113.21568 | 225 ft | 2 kts | 259° |
| 2026-05-04 18:20 | 28.19621 | 113.21584 | 225 ft | 0 kts | 260° |
| 2026-05-04 18:21 | 28.19624 | 113.21600 | 225 ft | 2 kts | 247° |
| 2026-05-04 18:21 | 28.19628 | 113.21611 | 225 ft | 2 kts | 236° |
| 2026-05-04 18:21 | 28.19638 | 113.21624 | 225 ft | 2 kts | 221° |
| 2026-05-04 18:21 | 28.19654 | 113.21636 | 225 ft | 2 kts | 204° |
| 2026-05-04 18:22 | 28.19663 | 113.21640 | 225 ft | 2 kts | 194° |
| 2026-05-04 18:22 | 28.19677 | 113.21643 | 225 ft | 2 kts | 180° |
| 2026-05-04 18:22 | 28.19684 | 113.21643 | 225 ft | 0 kts | 175° |
| 2026-05-04 18:24 | 28.19682 | 113.21643 | 224 ft | 1 kts | 175° |
| 2026-05-04 18:24 | 28.19664 | 113.21643 | 224 ft | 6 kts | 178° |
| 2026-05-04 18:25 | 28.19601 | 113.21647 | 224 ft | 10 kts | 177° |
| 2026-05-04 18:25 | 28.19531 | 113.21652 | 225 ft | 10 kts | 176° |
| 2026-05-04 18:25 | 28.19443 | 113.21656 | 224 ft | 13 kts | 179° |
| 2026-05-04 18:25 | 28.19296 | 113.21654 | 224 ft | 19 kts | 177° |
| 2026-05-04 18:26 | 28.19227 | 113.21659 | 225 ft | 11 kts | 175° |
| 2026-05-04 18:26 | 28.19168 | 113.21691 | 225 ft | 8 kts | 115° |
| 2026-05-04 18:26 | 28.19144 | 113.21754 | 225 ft | 9 kts | 136° |
| 2026-05-04 18:26 | 28.19061 | 113.21779 | 225 ft | 15 kts | 176° |
| 2026-05-04 18:27 | 28.18891 | 113.21789 | 225 ft | 20 kts | 176° |
| 2026-05-04 18:27 | 28.18750 | 113.21799 | 225 ft | 22 kts | 177° |
| 2026-05-04 18:27 | 28.18647 | 113.21804 | 224 ft | 24 kts | 177° |
| 2026-05-04 18:27 | 28.18444 | 113.21817 | 225 ft | 23 kts | 176° |
| 2026-05-04 18:28 | 28.18339 | 113.21824 | 225 ft | 22 kts | 177° |
| 2026-05-04 18:28 | 28.18127 | 113.21837 | 225 ft | 22 kts | 177° |
| 2026-05-04 18:28 | 28.18030 | 113.21842 | 225 ft | 21 kts | 177° |
| 2026-05-04 18:28 | 28.17887 | 113.21851 | 225 ft | 21 kts | 176° |
| 2026-05-04 18:29 | 28.17781 | 113.21865 | 224 ft | 11 kts | 159° |
| 2026-05-04 18:29 | 28.17744 | 113.21940 | 225 ft | 8 kts | 91° |
| 2026-05-04 18:29 | 28.17747 | 113.22004 | 225 ft | 7 kts | 76° |
| 2026-05-04 18:29 | 28.17758 | 113.22030 | 224 ft | 5 kts | 53° |
| 2026-05-04 18:30 | 28.17835 | 113.22043 | 225 ft | 12 kts | 357° |
| 2026-05-04 18:30 | 28.18131 | 113.22025 | 225 ft | 80 kts | 357° |
| 2026-05-04 18:30 | 28.18927 | 113.21973 | 225 ft | 144 kts | 357° |
| 2026-05-04 18:31 | 28.20036 | 113.21918 | 521 ft | 168 kts | 358° |
| 2026-05-04 18:31 | 28.21456 | 113.21852 | 1702 ft | 150 kts | 358° |
| 2026-05-04 18:31 | 28.22124 | 113.21813 | 2156 ft | 148 kts | 358° |
| 2026-05-04 18:31 | 28.23558 | 113.21726 | 2663 ft | 162 kts | 358° |
| 2026-05-04 18:32 | 28.24314 | 113.21680 | 2901 ft | 171 kts | 358° |
| 2026-05-04 18:32 | 28.25956 | 113.21579 | 3372 ft | 190 kts | 358° |
| 2026-05-04 18:32 | 28.26862 | 113.21558 | 3621 ft | 200 kts | 6° |
| 2026-05-04 18:32 | 28.28088 | 113.22236 | 3945 ft | 215 kts | 47° |
| 2026-05-04 18:33 | 28.28658 | 113.23771 | 4284 ft | 234 kts | 88° |
| 2026-05-04 18:33 | 28.28235 | 113.25535 | 4723 ft | 253 kts | 124° |
| 2026-05-04 18:33 | 28.27026 | 113.26736 | 5198 ft | 268 kts | 153° |
| 2026-05-04 18:33 | 28.24676 | 113.27624 | 6246 ft | 275 kts | 164° |
| 2026-05-04 18:34 | 28.22951 | 113.28159 | 7025 ft | 278 kts | 163° |
| 2026-05-04 18:34 | 28.21170 | 113.28764 | 7833 ft | 282 kts | 161° |
| 2026-05-04 18:34 | 28.20040 | 113.29179 | 8345 ft | 284 kts | 160° |
| 2026-05-04 18:34 | 28.18207 | 113.29895 | 9198 ft | 285 kts | 159° |
| 2026-05-04 18:35 | 28.16470 | 113.30605 | 9984 ft | 288 kts | 159° |
| 2026-05-04 18:35 | 28.14622 | 113.31381 | 10697 ft | 295 kts | 158° |
| 2026-05-04 18:35 | 28.12880 | 113.32125 | 11111 ft | 309 kts | 158° |
| 2026-05-04 18:35 | 28.10747 | 113.33044 | 11620 ft | 324 kts | 158° |
| 2026-05-04 18:36 | 28.08591 | 113.33978 | 12031 ft | 340 kts | 158° |
| 2026-05-04 18:36 | 28.06308 | 113.34968 | 12417 ft | 357 kts | 158° |
| 2026-05-04 18:36 | 28.03935 | 113.35998 | 12769 ft | 374 kts | 158° |
| 2026-05-04 18:36 | 28.00621 | 113.37438 | 13197 ft | 395 kts | 158° |
| 2026-05-04 18:37 | 27.98908 | 113.38182 | 13508 ft | 401 kts | 158° |
| 2026-05-04 18:37 | 27.96309 | 113.39310 | 14166 ft | 406 kts | 158° |
| 2026-05-04 18:37 | 27.93665 | 113.40456 | 14866 ft | 408 kts | 158° |
| 2026-05-04 18:37 | 27.91024 | 113.41601 | 15528 ft | 411 kts | 158° |
| 2026-05-04 18:38 | 27.88422 | 113.42727 | 16158 ft | 414 kts | 158° |
| 2026-05-04 18:38 | 27.85718 | 113.43895 | 16797 ft | 417 kts | 158° |
| 2026-05-04 18:38 | 27.83023 | 113.45058 | 17415 ft | 420 kts | 158° |
| 2026-05-04 18:38 | 27.80263 | 113.46251 | 18028 ft | 423 kts | 158° |
| 2026-05-04 18:39 | 27.77544 | 113.47426 | 18614 ft | 426 kts | 158° |
| 2026-05-04 18:39 | 27.74783 | 113.48619 | 19188 ft | 428 kts | 158° |
| 2026-05-04 18:39 | 27.71979 | 113.49831 | 19752 ft | 431 kts | 158° |
| 2026-05-04 18:39 | 27.69175 | 113.51042 | 20305 ft | 434 kts | 158° |
| 2026-05-04 18:40 | 27.66497 | 113.52198 | 20866 ft | 435 kts | 158° |
| 2026-05-04 18:40 | 27.63650 | 113.53426 | 21435 ft | 437 kts | 158° |
| 2026-05-04 18:40 | 27.60871 | 113.54626 | 21946 ft | 440 kts | 158° |
| 2026-05-04 18:40 | 27.58212 | 113.55772 | 22418 ft | 442 kts | 158° |
| 2026-05-04 18:41 | 27.54923 | 113.57188 | 22982 ft | 445 kts | 158° |
| 2026-05-04 18:41 | 27.52555 | 113.58208 | 23377 ft | 447 kts | 158° |
| 2026-05-04 18:41 | 27.49701 | 113.59437 | 23835 ft | 450 kts | 158° |
| 2026-05-04 18:41 | 27.45761 | 113.61131 | 24430 ft | 453 kts | 159° |
| 2026-05-04 18:42 | 27.43827 | 113.61962 | 24708 ft | 455 kts | 159° |
| 2026-05-04 18:42 | 27.39871 | 113.63662 | 25255 ft | 458 kts | 159° |
| 2026-05-04 18:42 | 27.38021 | 113.64456 | 25501 ft | 460 kts | 159° |
| 2026-05-04 18:42 | 27.34662 | 113.65904 | 25936 ft | 463 kts | 159° |
| 2026-05-04 18:43 | 27.32406 | 113.66882 | 26215 ft | 464 kts | 159° |
| 2026-05-04 18:43 | 27.28433 | 113.68598 | 26680 ft | 468 kts | 160° |
| 2026-05-04 18:43 | 27.26422 | 113.69407 | 26906 ft | 469 kts | 162° |
| 2026-05-04 18:43 | 27.23271 | 113.70474 | 27241 ft | 471 kts | 166° |
| 2026-05-04 18:44 | 27.20125 | 113.71296 | 27528 ft | 474 kts | 169° |
| 2026-05-04 18:44 | 27.17944 | 113.71724 | 27724 ft | 475 kts | 171° |
| 2026-05-04 18:44 | 27.13579 | 113.72434 | 28115 ft | 479 kts | 172° |
| 2026-05-04 18:44 | 27.10305 | 113.72949 | 28401 ft | 481 kts | 172° |
| 2026-05-04 18:45 | 27.06981 | 113.73470 | 28693 ft | 482 kts | 172° |
| 2026-05-04 18:45 | 27.02529 | 113.74173 | 29077 ft | 484 kts | 173° |
| 2026-05-04 18:45 | 26.99240 | 113.74702 | 29294 ft | 489 kts | 173° |
| 2026-05-04 18:46 | 26.92436 | 113.75773 | 29577 ft | 499 kts | 173° |
| 2026-05-04 18:46 | 26.90164 | 113.76130 | 29728 ft | 501 kts | 173° |
| 2026-05-04 18:46 | 26.86772 | 113.76663 | 30053 ft | 501 kts | 173° |
| 2026-05-04 18:46 | 26.83377 | 113.77200 | 30447 ft | 499 kts | 173° |
| 2026-05-04 18:47 | 26.79943 | 113.77746 | 30852 ft | 498 kts | 173° |
| 2026-05-04 18:47 | 26.75413 | 113.78560 | 31357 ft | 496 kts | 170° |
| 2026-05-04 18:47 | 26.73215 | 113.79072 | 31594 ft | 496 kts | 168° |
| 2026-05-04 18:47 | 26.69863 | 113.80017 | 31951 ft | 495 kts | 165° |
| 2026-05-04 18:48 | 26.66581 | 113.81045 | 32300 ft | 494 kts | 165° |
| 2026-05-04 18:48 | 26.63295 | 113.82080 | 32608 ft | 494 kts | 165° |
| 2026-05-04 18:48 | 26.58922 | 113.83453 | 32946 ft | 495 kts | 165° |
| 2026-05-04 18:48 | 26.56747 | 113.84133 | 33102 ft | 496 kts | 165° |
| 2026-05-04 18:49 | 26.52292 | 113.85525 | 33417 ft | 497 kts | 165° |
| 2026-05-04 18:49 | 26.50082 | 113.86214 | 33571 ft | 497 kts | 165° |
| 2026-05-04 18:49 | 26.45727 | 113.87517 | 33866 ft | 498 kts | 166° |
| 2026-05-04 18:49 | 26.43487 | 113.88166 | 33998 ft | 499 kts | 166° |
| 2026-05-04 18:50 | 26.39170 | 113.89406 | 34043 ft | 500 kts | 166° |
| 2026-05-04 18:50 | 26.33607 | 113.91004 | 34049 ft | 500 kts | 166° |
| 2026-05-04 18:51 | 26.25787 | 113.93256 | 34051 ft | 500 kts | 166° |
| 2026-05-04 18:51 | 26.20171 | 113.94873 | 34051 ft | 500 kts | 166° |
| 2026-05-04 18:52 | 26.13447 | 113.96806 | 34051 ft | 500 kts | 166° |
| 2026-05-04 18:52 | 26.06750 | 113.98727 | 34052 ft | 500 kts | 166° |
| 2026-05-04 18:53 | 26.00069 | 114.00654 | 34052 ft | 500 kts | 166° |
| 2026-05-04 18:53 | 25.93390 | 114.02649 | 34052 ft | 500 kts | 166° |
| 2026-05-04 18:54 | 25.86798 | 114.04618 | 34051 ft | 500 kts | 166° |
| 2026-05-04 18:54 | 25.80115 | 114.06597 | 34051 ft | 500 kts | 166° |
| 2026-05-04 18:55 | 25.73460 | 114.08566 | 34051 ft | 500 kts | 166° |
| 2026-05-04 18:55 | 25.63447 | 114.11527 | 34052 ft | 500 kts | 166° |
| 2026-05-04 18:56 | 25.55620 | 114.13839 | 34052 ft | 500 kts | 166° |
| 2026-05-04 18:56 | 25.50101 | 114.15467 | 34052 ft | 500 kts | 166° |
| 2026-05-04 18:57 | 25.43412 | 114.17438 | 34052 ft | 500 kts | 166° |
| 2026-05-04 18:57 | 25.37253 | 114.19250 | 34052 ft | 500 kts | 166° |